Página principal
METAR-TAF:

METAR-TAF

Aeroportos :

Victoria, Mahé, Seychelles

Aeroporto Internacional de Seicheles

latitude: 04-40S, longitude: 055-31E, altura: 3 m

Observação actual do tempo

O boletim foi feito há 20 minutos, às 15:00 UTC
Vento 11 kt de noroeste
Temperatura 28°C
Humidade 79%
Pressão 1010 hPa
Visibilidade 10 km ou mais
Nuvens fragmentadasa uma altura de 2100 ft

METAR: FSIA 161500Z 32011KT 9999 BKN021 28/24 Q1010 NOSIG

Hora: 19:20 (15:20 UTC)

Previsão

O boletim foi feito há 4 horas e 17 minutos, às 11:03 UTC
Previsão válida de 16 às 12 UTC a 17 às 12 UTC
Vento 15 kt de noroeste
Visibilidade 10 km ou mais
Nuvens dispersasa uma altura de 2200 ft
Probabilidade 40% :
Temporariamente
de 16 às 20 UTC a 17 às 02 UTC
Nuvens fragmentadasa uma altura de 1800 ft
aguaceiros fracos de chuva
Tornando-se
de 17 às 02 UTC a 17 às 04 UTC
Vento 10 kt de nor-noroeste

TAF: FSIA 161103Z 1612/1712 32015KT 9999 SCT022 PROB40 TEMPO 1620/1702 -SHRA BKN018 BECMG 1702/1704 34010KT

Observações e previsões do tempo de mais de 4000 aeroportos (mensagens METAR e TAF).

As estações disponíveis são os pontos amarelos e vermelhos sobre o mapa.

Mova o rato sobre o mapa para ver o nome da estação.

Depois clique no ponto para visualizar as observações e previsões meteorológicas.

Para alterar o mapa : clique nos botões verdes com uma cruz preta para aumentar o zoom; no botão verde com uma pitada de zoom; ou nas setas verdes para mapas adjacentes.


METAR-TAF: